Randolph Air Force Base
KRND : now visible

Airfield :











YOU CAN JOIN US ON...

 
LOGIN :

Register | Disclaimer

   EN    FR    IT 

 









Legend :    VFR   Marginal VFR   IFR   Intensive IFR   Very Intensive IFR
Visi :
Ceiling :
>= 8 km
>= 3000ft
5 to 8 km
1000 to 3000 ft
1500m to 5 km
500 to 1000 ft
800 to 1500m
200 to 500 ft
< 800m
< 200 ft
Symbols :   Thunderstorms  Fog  Heavy snow  Heavy precipitations  Wind > 20 kt






- Airport Elevation : 761 ft


KRND - Randolph Air Force Base

CURRENT METAR :
  • 231146Z AUTO 17006KT 8SM OVC003 22/22 A2990 RMK AO2 CIG 002 RWY15R SLP118

EXPIRED METARs :
  • 231056Z AUTO 16005KT 10SM OVC003 22/22 A2990 RMK AO2 CIG 002 RWY15R SLP117 T02170215
  • 231041Z AUTO 16005KT 6SM BR OVC002 22/22 A2989 RMK AO2 VIS 2 3/4 RWY15R SLP114
  • 231031Z AUTO 17004KT 3SM BR OVC002 22/22 A2989 RMK AO2 VIS 2 1/2 RWY33L SLP114
  • 231026Z AUTO 16004KT 1 7/8SM BR OVC002 22/22 A2990 RMK AO2 VIS 1 5/8V5 SLP117
  • 230956Z AUTO 19004KT 7SM OVC003 22/22 A2991 RMK AO2 SLP121 T02180216
  • 230936Z AUTO 18004KT 7SM OVC003 22/22 A2991 RMK AO2 SLP121
  • 230916Z AUTO 21003KT 6SM BR OVC002 22/21 A2992 RMK AO2 SLP124
  • 230906Z AUTO 19004KT 3SM BR OVC002 22/21 A2992 RMK AO2 VIS 1 5/8 RWY33L SLP124
  • 230856Z AUTO 20004KT 1 5/8SM BR OVC002 22/21 A2992 RMK AO2 VIS 1V1 5/8 VIS 7/8 RWY33L SLP124 T02160214 57010

TAF TAF KRND
Valid from the 22 at 16:00 until the 23 at 22:00 UTC


221555Z 2216/2322 VRB06KT 9999 SCT035 SCT200 QNH2994INS
BECMG 2303/2304 VRB06KT 8000 BR BKN018 BKN030 QNH2996INS
BECMG 2308/2309 VRB06KT 3200 BR BKN003 OVC009 QNH2993INS
BECMG 2314/2315 17010G15KT 6000 BR BKN012 OVC030 QNH2995INS
BECMG 2317/2318 18012G18KT 9999 NSW BKN018 OVC030 QNH2994INS
BECMG 2320/2321 17010G15KT 9999 BKN030 QNH2986INS TX29/2220Z TN20/2308Z LAST NO AMDS AFT 2300 NEXT 2418
KZHU FIR / North America



MET'MAP, your aeronautical weather chart ! - Copyright ORBIFLY December 2007 - Disclaimer

ORBIFLY MET'MAP TEAM :

Programming & Development : Alexandra Zaïnal
Concept & original design : Baudouin d'Aumeries
Assistance for programming : Marc-Olivier Méhu
Technical & hardware support : Manuel Goepfert

Contact : metmap@orbifly.com




SOURCES & CREDITS :

   NOAA       Earth
Advisory